メインページ
METAR-TAF:

METAR-TAF

空港 :

フリント, ミシガン州, アメリカ合衆国

緯度: 42-58-00N, 経度: 083-44-58W, 海抜: 238m

現時点の気象観測

当レポートは46分前の12:53(UTC)に作成
西/北西の風 3kt
気温 31°C
湿度 46%
気圧 1009 hPa
視程: 16.1km
晴天

METAR: KFNT 201253Z 29003KT 10SM CLR 31/18 A2981 RMK AO2 SLP086 T03110183

時間: 09:39 (13:39 UTC)

予報

当レポートは29分前の13:10(UTC)に作成
予報は20日の 13時(UTC)から 21日の 12時(UTC)まで有効
西の風 8kt
視程: 10km
高度10000ftの雲は散在している
高度25000ftの千切れ雲あり
近辺でにわか雨
20日の 1800時(UTC)から
南西の風 13kt、最大20ktの突風を伴う
視程: 10km
高度4500ftの雲は散在している
高度10000ftの千切れ雲あり
20日の 21時(UTC)から 21日の 01時(UTC)まで一時的に
視程: 3.2km
高度3000ftの曇り, 積乱雲.
激しい雷雨, 雨
21日の 0200時(UTC)から
西/北西の風 9kt
視程: 10km
高度8000ftの雲は散在している
高度15000ftの千切れ雲あり

TAF: KFNT 201310Z 2013/2112 27008KT P6SM VCSH SCT100 BKN250 FM201800 23013G20KT P6SM SCT045 BKN100 TEMPO 2021/2101 2SM TSRA OVC030CB FM210200 29009KT P6SM SCT080 BKN150

4,000以上の空港の気象観測と天気予報(METAR報とTAF報)

利用可能な観測所は地図上に黄色い丸と赤い丸で示す。

丸の上にカーソルを重ねると観測所名を参照できる。

次にクリックすると気象観測と天気予報を参照できる。

マップの切り替え:黒色「×」印の緑ボタンをクリックして拡大、「-」印の緑ボタンをクリックして縮小、緑色の三角印をクリックして隣りの地図に切り替え


METAR-TAF: